createdAt,value
2023-05-05T00:00:14.943Z,9.78
2023-05-05T00:01:14.890Z,9.79
2023-05-05T00:02:14.680Z,9.76
2023-05-05T00:03:14.595Z,9.78
2023-05-05T00:04:15.017Z,9.68
2023-05-05T00:05:14.623Z,9.60
2023-05-05T00:06:14.570Z,9.61
2023-05-05T00:07:15.346Z,9.57
2023-05-05T00:08:14.189Z,9.61
2023-05-05T00:09:14.637Z,9.75
2023-05-05T00:10:14.250Z,9.75
2023-05-05T00:11:14.301Z,9.81
2023-05-05T00:12:14.096Z,9.84
2023-05-05T00:13:14.435Z,9.81
2023-05-05T00:14:14.839Z,9.76
2023-05-05T00:15:15.779Z,9.64
2023-05-05T00:16:14.653Z,9.68
2023-05-05T00:17:14.669Z,9.54
2023-05-05T00:18:14.499Z,9.66
2023-05-05T00:19:14.164Z,9.61
2023-05-05T00:20:14.518Z,9.71
2023-05-05T00:21:14.318Z,9.74
2023-05-05T00:22:15.170Z,9.74
2023-05-05T00:23:14.598Z,9.78
2023-05-05T00:24:14.530Z,9.66
2023-05-05T00:25:17.068Z,9.66
2023-05-05T00:26:14.200Z,9.58
2023-05-05T00:27:14.050Z,9.42
2023-05-05T00:28:14.848Z,9.39
2023-05-05T00:29:13.984Z,9.35
2023-05-05T00:32:53.395Z,9.24
2023-05-05T00:33:53.252Z,9.20
2023-05-05T00:34:53.220Z,9.29
2023-05-05T00:35:53.210Z,9.38
2023-05-05T00:36:53.164Z,9.26
2023-05-05T00:37:53.281Z,9.28
2023-05-05T00:38:53.149Z,9.33
2023-05-05T00:39:53.793Z,9.35
2023-05-05T00:40:53.284Z,9.35
2023-05-05T00:41:53.103Z,9.33
2023-05-05T00:44:15.938Z,9.32
2023-05-05T00:45:15.842Z,9.32
2023-05-05T00:46:15.814Z,9.28
2023-05-05T00:47:15.749Z,9.29
2023-05-05T00:48:15.729Z,9.17
2023-05-05T00:49:15.704Z,9.26
2023-05-05T00:50:15.688Z,9.14
2023-05-05T00:51:15.646Z,9.23
2023-05-05T00:52:15.619Z,9.18
2023-05-05T00:53:15.605Z,9.17
2023-05-05T00:54:15.601Z,9.14
2023-05-05T00:55:15.599Z,9.21
2023-05-05T00:56:15.567Z,9.13
2023-05-05T00:57:15.552Z,9.24
2023-05-05T00:58:15.547Z,9.29
2023-05-05T00:59:15.545Z,9.29
2023-05-05T01:00:15.548Z,9.28
2023-05-05T01:01:15.617Z,9.28
2023-05-05T01:02:15.494Z,9.24
2023-05-05T01:03:15.639Z,9.18
2023-05-05T01:04:15.463Z,9.17
2023-05-05T01:05:15.486Z,9.31
2023-05-05T01:06:15.452Z,9.18
2023-05-05T01:07:15.431Z,9.17
2023-05-05T01:08:15.445Z,9.18
2023-05-05T01:09:15.401Z,9.24
2023-05-05T01:10:19.806Z,9.32
2023-05-05T01:11:15.388Z,9.32
2023-05-05T01:12:15.380Z,9.35
2023-05-05T01:13:15.406Z,9.33
2023-05-05T01:14:15.341Z,9.32
2023-05-05T01:15:15.326Z,9.23
2023-05-05T01:16:15.430Z,9.21
2023-05-05T01:17:15.310Z,9.08
2023-05-05T01:18:15.298Z,9.15
2023-05-05T01:19:15.282Z,9.23
2023-05-05T01:20:15.272Z,9.29
2023-05-05T01:21:15.279Z,9.29
2023-05-05T01:22:15.249Z,9.48
2023-05-05T01:23:15.232Z,9.46
2023-05-05T01:24:15.233Z,9.42
2023-05-05T01:25:15.210Z,9.39
2023-05-05T01:26:15.248Z,9.38
2023-05-05T01:27:15.186Z,9.36
2023-05-05T01:28:15.197Z,9.29
2023-05-05T01:29:15.165Z,9.33
2023-05-05T01:30:15.154Z,9.40
2023-05-05T01:31:15.160Z,9.46
2023-05-05T01:32:15.150Z,9.40
2023-05-05T01:33:15.113Z,9.40
2023-05-05T01:34:15.107Z,9.46
2023-05-05T01:35:15.097Z,9.47
2023-05-05T01:36:15.072Z,9.38
2023-05-05T01:38:43.793Z,9.38
2023-05-05T01:39:43.769Z,9.46
2023-05-05T01:40:56.171Z,9.48
2023-05-05T01:41:44.160Z,9.43
2023-05-05T01:42:44.049Z,9.40
2023-05-05T01:43:43.704Z,9.43
2023-05-05T01:44:43.764Z,9.51
2023-05-05T01:45:43.677Z,9.69
2023-05-05T01:46:43.684Z,9.75
2023-05-05T01:47:53.886Z,9.72
2023-05-05T01:48:43.751Z,9.90
2023-05-05T01:49:55.022Z,9.94
2023-05-05T01:50:46.181Z,9.93
2023-05-05T01:51:44.917Z,9.84
2023-05-05T01:52:45.030Z,9.94
2023-05-05T01:53:45.028Z,9.96
2023-05-05T01:54:44.876Z,9.97
2023-05-05T01:55:44.806Z,10.04
2023-05-05T01:56:44.851Z,10.17
2023-05-05T01:57:45.582Z,10.05
2023-05-05T01:58:45.039Z,10.14
2023-05-05T01:59:44.938Z,10.22
2023-05-05T02:00:44.823Z,10.26
2023-05-05T02:01:44.940Z,10.17
2023-05-05T02:02:45.003Z,10.26
2023-05-05T02:03:44.961Z,10.27
2023-05-05T02:04:45.045Z,10.23
2023-05-05T02:05:44.693Z,10.25
2023-05-05T02:06:44.719Z,10.25
2023-05-05T02:07:44.690Z,10.26
2023-05-05T02:08:44.657Z,10.32
2023-05-05T02:09:44.705Z,10.33
2023-05-05T02:10:44.698Z,10.32
2023-05-05T02:11:44.763Z,10.42
2023-05-05T02:12:44.792Z,10.47
2023-05-05T02:13:44.717Z,10.59
2023-05-05T02:14:44.873Z,10.78
2023-05-05T02:15:44.527Z,10.85
2023-05-05T02:16:44.895Z,10.94
2023-05-05T02:17:44.832Z,11.04
2023-05-05T02:18:44.579Z,11.17
2023-05-05T02:19:44.597Z,11.17
2023-05-05T02:20:44.461Z,11.03
2023-05-05T02:21:44.447Z,11.02
2023-05-05T02:23:07.008Z,11.00
2023-05-05T02:23:45.378Z,10.94
2023-05-05T02:24:44.646Z,10.86
2023-05-05T02:25:44.379Z,10.78
2023-05-05T02:26:44.357Z,10.81
2023-05-05T02:27:44.314Z,10.82
2023-05-05T02:28:44.267Z,10.86
2023-05-05T02:29:44.315Z,10.96
2023-05-05T02:30:44.377Z,11.02
2023-05-05T02:31:44.348Z,11.02
2023-05-05T02:32:44.251Z,11.06
2023-05-05T02:33:44.254Z,11.04
2023-05-05T02:34:44.263Z,11.03
2023-05-05T02:35:44.136Z,11.02
2023-05-05T02:36:44.171Z,11.11
2023-05-05T02:37:44.158Z,11.21
2023-05-05T02:38:44.209Z,11.18
2023-05-05T02:39:44.122Z,11.29
2023-05-05T02:40:44.189Z,11.28
2023-05-05T02:41:44.148Z,11.03
2023-05-05T02:42:44.110Z,10.89
2023-05-05T02:43:45.032Z,10.82
2023-05-05T02:44:44.021Z,10.74
2023-05-05T02:45:44.080Z,10.74
2023-05-05T02:46:44.076Z,10.64
2023-05-05T02:47:44.045Z,10.82
2023-05-05T02:48:43.996Z,10.79
2023-05-05T02:52:01.010Z,10.78
2023-05-05T02:53:01.204Z,10.86
2023-05-05T02:54:01.157Z,10.78
2023-05-05T02:55:00.805Z,10.91
2023-05-05T02:56:00.719Z,10.86
2023-05-05T02:57:00.685Z,10.99
2023-05-05T02:58:00.725Z,10.88
2023-05-05T03:00:10.835Z,10.84
2023-05-05T03:01:10.759Z,10.78
2023-05-05T03:02:10.760Z,10.88
2023-05-05T03:03:10.765Z,10.91
2023-05-05T03:04:10.691Z,10.97
2023-05-05T03:05:21.495Z,11.00
2023-05-05T03:06:11.032Z,11.00
2023-05-05T03:07:10.851Z,10.84
2023-05-05T03:08:10.768Z,10.89
2023-05-05T03:09:10.612Z,10.86
2023-05-05T03:10:10.792Z,10.84
2023-05-05T03:11:20.831Z,10.91
2023-05-05T03:12:10.665Z,10.82
2023-05-05T03:13:10.746Z,10.89
2023-05-05T03:14:10.737Z,10.86
2023-05-05T03:15:10.821Z,10.86
2023-05-05T03:16:10.746Z,10.89
2023-05-05T03:17:20.763Z,10.85
2023-05-05T03:18:11.222Z,10.89
2023-05-05T03:19:10.656Z,10.84
2023-05-05T03:20:10.511Z,10.92
2023-05-05T03:21:10.527Z,10.91
2023-05-05T03:22:10.463Z,10.91
2023-05-05T03:23:20.756Z,10.94
2023-05-05T03:24:10.522Z,10.89
2023-05-05T03:25:10.528Z,10.85
2023-05-05T03:26:10.400Z,10.84
2023-05-05T03:27:10.381Z,10.81
2023-05-05T03:28:10.421Z,10.79
2023-05-05T03:29:20.596Z,10.78
2023-05-05T03:30:10.638Z,10.71
2023-05-05T03:31:10.506Z,10.68
2023-05-05T03:32:10.484Z,10.56
2023-05-05T03:33:10.343Z,10.68
2023-05-05T03:34:10.335Z,10.61
2023-05-05T03:35:20.487Z,10.67
2023-05-05T03:36:10.355Z,10.61
2023-05-05T03:37:10.390Z,10.88
2023-05-05T03:38:10.230Z,10.89
2023-05-05T03:39:10.237Z,11.00
2023-05-05T03:40:10.406Z,10.99
2023-05-05T03:41:20.559Z,11.03
2023-05-05T03:42:10.358Z,11.03
2023-05-05T03:43:10.254Z,11.07
2023-05-05T03:44:10.194Z,10.99
2023-05-05T03:45:10.320Z,10.96
2023-05-05T03:46:10.169Z,10.89
2023-05-05T03:47:20.332Z,10.89
2023-05-05T03:48:10.186Z,10.78
2023-05-05T03:49:10.135Z,10.78
2023-05-05T03:50:10.262Z,10.64
2023-05-05T03:51:10.073Z,10.63
2023-05-05T03:52:10.143Z,10.63
2023-05-05T03:53:20.275Z,10.60
2023-05-05T03:54:10.200Z,10.66
2023-05-05T03:55:10.166Z,10.68
2023-05-05T03:56:10.131Z,10.55
2023-05-05T03:57:10.056Z,10.59
2023-05-05T03:58:09.982Z,10.59
2023-05-05T03:59:20.366Z,10.51
2023-05-05T04:00:10.047Z,10.48
2023-05-05T04:01:10.116Z,10.59
2023-05-05T04:02:10.070Z,10.42
2023-05-05T04:03:10.075Z,10.53
2023-05-05T04:04:09.991Z,10.30
2023-05-05T04:05:20.217Z,10.32
2023-05-05T04:06:10.044Z,10.32
2023-05-05T04:07:10.070Z,10.38
2023-05-05T04:08:10.004Z,10.44
2023-05-05T04:09:09.897Z,10.53
2023-05-05T04:10:10.048Z,10.61
2023-05-05T04:11:20.057Z,10.96
2023-05-05T04:12:09.993Z,11.09
2023-05-05T04:13:09.970Z,11.22
2023-05-05T04:14:09.823Z,11.22
2023-05-05T04:15:09.766Z,11.19
2023-05-05T04:16:09.800Z,11.14
2023-05-05T04:17:20.173Z,11.18
2023-05-05T04:18:10.033Z,11.19
2023-05-05T04:19:09.815Z,11.00
2023-05-05T04:20:09.987Z,10.96
2023-05-05T04:21:09.745Z,11.03
2023-05-05T04:22:09.801Z,10.78
2023-05-05T04:23:20.083Z,10.79
2023-05-05T04:24:09.793Z,10.73
2023-05-05T04:25:09.787Z,10.82
2023-05-05T04:26:09.774Z,10.94
2023-05-05T04:27:09.607Z,11.04
2023-05-05T04:28:09.716Z,11.00
2023-05-05T04:29:19.867Z,11.02
2023-05-05T04:30:09.829Z,11.06
2023-05-05T04:31:09.665Z,11.10
2023-05-05T04:32:18.949Z,11.10
2023-05-05T04:33:10.130Z,11.02
2023-05-05T04:34:09.667Z,11.15
2023-05-05T04:35:19.705Z,11.11
2023-05-05T04:36:09.668Z,11.17
2023-05-05T04:39:24.492Z,11.18
2023-05-05T04:40:24.683Z,11.18
2023-05-05T04:41:24.451Z,11.28
2023-05-05T04:42:24.370Z,11.32
2023-05-05T04:43:25.706Z,11.28
2023-05-05T04:44:25.911Z,11.36
2023-05-05T04:45:25.851Z,11.46
2023-05-05T04:46:25.920Z,11.42
2023-05-05T04:47:25.712Z,11.64
2023-05-05T04:48:25.617Z,11.67
2023-05-05T04:49:25.708Z,11.65
2023-05-05T04:50:25.652Z,11.65
2023-05-05T04:51:25.818Z,11.65
2023-05-05T04:52:25.692Z,11.65
2023-05-05T04:53:25.674Z,11.73
2023-05-05T04:54:25.671Z,11.75
2023-05-05T04:55:25.640Z,11.62
2023-05-05T04:56:25.590Z,11.76
2023-05-05T04:57:25.831Z,11.69
2023-05-05T04:58:25.601Z,11.75
2023-05-05T04:59:25.356Z,11.75
2023-05-05T05:00:26.089Z,11.91
2023-05-05T05:01:25.416Z,11.86
2023-05-05T05:02:25.445Z,11.80
2023-05-05T05:03:25.386Z,11.75
2023-05-05T05:04:25.275Z,11.78
2023-05-05T05:05:25.292Z,11.98
2023-05-05T05:06:25.283Z,11.99
2023-05-05T05:07:25.215Z,11.96
2023-05-05T05:08:25.167Z,11.86
2023-05-05T05:09:25.179Z,11.86
2023-05-05T05:10:25.223Z,12.09
2023-05-05T05:11:25.317Z,12.24
2023-05-05T05:12:25.241Z,12.50
2023-05-05T05:13:25.417Z,13.38
2023-05-05T05:14:25.303Z,14.27
2023-05-05T05:15:25.153Z,15.10
2023-05-05T05:16:25.234Z,15.82
2023-05-05T05:17:25.162Z,16.33
2023-05-05T05:18:25.174Z,16.68
2023-05-05T05:19:25.150Z,17.16
2023-05-05T05:20:25.203Z,17.71
2023-05-05T05:21:25.222Z,17.90
2023-05-05T05:22:25.181Z,18.25
2023-05-05T05:23:25.116Z,18.32
2023-05-05T05:24:25.128Z,18.30
2023-05-05T05:25:25.049Z,17.77
2023-05-05T05:26:25.097Z,16.61
2023-05-05T05:27:25.092Z,15.57
2023-05-05T05:28:25.151Z,14.96
2023-05-05T05:29:25.064Z,14.57
2023-05-05T05:30:25.025Z,14.27
2023-05-05T05:31:25.092Z,14.07
2023-05-05T05:32:24.996Z,14.24
2023-05-05T05:33:25.242Z,14.25
2023-05-05T05:34:25.247Z,14.47
2023-05-05T05:35:25.232Z,15.13
2023-05-05T05:36:25.320Z,14.89
2023-05-05T05:37:25.247Z,15.49
2023-05-05T05:38:25.231Z,15.41
2023-05-05T05:39:25.140Z,14.92
2023-05-05T05:42:54.537Z,14.43
2023-05-05T05:43:54.875Z,14.36
2023-05-05T05:44:54.297Z,14.28
2023-05-05T05:45:54.342Z,14.15
2023-05-05T05:46:54.286Z,14.10
2023-05-05T05:47:54.338Z,14.00
2023-05-05T05:48:54.154Z,13.97
2023-05-05T05:49:54.196Z,13.81
2023-05-05T05:50:54.125Z,13.71
2023-05-05T05:51:54.172Z,13.81
2023-05-05T05:52:54.141Z,14.46
2023-05-05T05:53:55.106Z,14.45
2023-05-05T05:54:54.269Z,14.15
2023-05-05T05:55:54.136Z,13.81
2023-05-05T05:56:54.141Z,13.73
2023-05-05T05:57:54.149Z,13.88
2023-05-05T05:58:54.138Z,14.60
2023-05-05T05:59:54.052Z,15.69
2023-05-05T06:00:53.904Z,16.45
2023-05-05T06:01:54.017Z,16.52
2023-05-05T06:02:54.172Z,16.91
2023-05-05T06:03:54.113Z,16.91
2023-05-05T06:04:54.114Z,16.85
2023-05-05T06:05:54.083Z,16.86
2023-05-05T06:06:54.134Z,16.91
2023-05-05T06:10:27.357Z,16.94
2023-05-05T06:11:24.760Z,17.74
2023-05-05T06:12:24.624Z,18.14
2023-05-05T06:13:24.816Z,17.90
2023-05-05T06:14:24.551Z,16.67
2023-05-05T06:15:24.568Z,17.30
2023-05-05T06:16:24.602Z,17.66
2023-05-05T06:17:24.532Z,17.21
2023-05-05T06:18:24.553Z,16.28
2023-05-05T06:19:24.497Z,15.86
2023-05-05T06:20:24.527Z,15.67
2023-05-05T06:21:24.663Z,15.43
2023-05-05T06:22:24.473Z,15.34
2023-05-05T06:23:24.448Z,15.28
2023-05-05T06:24:24.431Z,15.82
2023-05-05T06:25:24.419Z,17.01
2023-05-05T06:26:24.447Z,17.34
2023-05-05T06:27:24.432Z,16.97
2023-05-05T06:28:24.396Z,16.76
2023-05-05T06:29:24.405Z,16.50
2023-05-05T06:30:24.365Z,16.33
2023-05-05T06:31:24.401Z,15.75
2023-05-05T06:32:24.439Z,15.75
2023-05-05T06:33:24.370Z,15.64
2023-05-05T06:34:24.323Z,15.25
2023-05-05T06:35:24.300Z,15.06
2023-05-05T06:36:24.317Z,15.28
2023-05-05T06:37:24.275Z,15.41
2023-05-05T06:38:24.287Z,15.21
2023-05-05T06:39:24.254Z,14.80
2023-05-05T06:40:24.243Z,14.75
2023-05-05T06:41:24.227Z,14.58
2023-05-05T06:42:24.238Z,14.81
2023-05-05T06:43:24.234Z,15.03
2023-05-05T06:44:24.279Z,14.78
2023-05-05T06:45:24.179Z,16.08
2023-05-05T06:46:25.313Z,16.49
2023-05-05T06:47:25.316Z,15.57
2023-05-05T06:48:25.305Z,15.36
2023-05-05T06:49:25.237Z,15.43
2023-05-05T06:50:25.248Z,15.57
2023-05-05T06:51:25.288Z,15.41
2023-05-05T06:52:25.208Z,15.07
2023-05-05T06:53:25.204Z,14.96
2023-05-05T06:54:25.214Z,14.98
2023-05-05T06:55:25.184Z,15.25
2023-05-05T06:56:25.321Z,15.43
2023-05-05T06:57:25.156Z,15.64
2023-05-05T06:58:25.231Z,15.83
2023-05-05T06:59:25.190Z,15.89
2023-05-05T07:00:25.125Z,16.58
2023-05-05T07:01:25.199Z,17.23
2023-05-05T07:02:26.843Z,17.08
2023-05-05T07:03:26.117Z,16.89
2023-05-05T07:04:25.122Z,17.70
2023-05-05T07:05:25.077Z,18.47
2023-05-05T07:06:25.047Z,17.66
2023-05-05T07:07:25.062Z,17.33
2023-05-05T07:08:25.041Z,17.19
2023-05-05T07:09:25.020Z,16.88
2023-05-05T07:10:25.058Z,16.57
2023-05-05T07:11:24.997Z,16.68
2023-05-05T07:12:24.984Z,16.70
2023-05-05T07:13:25.133Z,16.81
2023-05-05T07:14:24.962Z,16.88
2023-05-05T07:15:28.774Z,16.97
2023-05-05T07:16:25.970Z,16.52
2023-05-05T07:17:24.952Z,16.48
2023-05-05T07:18:24.923Z,16.41
2023-05-05T07:19:24.908Z,16.39
2023-05-05T07:20:24.884Z,16.15
2023-05-05T07:21:24.904Z,16.12
2023-05-05T07:22:24.858Z,16.14
2023-05-05T07:23:24.977Z,15.74
2023-05-05T07:24:24.837Z,15.72
2023-05-05T07:25:24.812Z,15.86
2023-05-05T07:26:24.861Z,15.89
2023-05-05T07:27:24.793Z,16.11
2023-05-05T07:28:24.891Z,16.11
2023-05-05T07:29:24.900Z,16.34
2023-05-05T07:30:25.102Z,17.25
2023-05-05T07:31:24.838Z,17.11
2023-05-05T07:32:24.771Z,17.16
2023-05-05T07:33:24.719Z,17.37
2023-05-05T07:34:24.728Z,17.31
2023-05-05T07:35:24.692Z,17.46
2023-05-05T07:36:24.687Z,17.15
2023-05-05T07:37:24.724Z,17.00
2023-05-05T07:38:24.685Z,17.21
2023-05-05T07:39:24.713Z,17.79
2023-05-05T07:40:24.643Z,17.71
2023-05-05T07:41:24.628Z,18.20
2023-05-05T07:42:24.665Z,19.19
2023-05-05T07:43:24.585Z,19.39
2023-05-05T07:44:24.577Z,19.80
2023-05-05T07:45:24.592Z,19.94
2023-05-05T07:46:24.564Z,19.87
2023-05-05T07:47:24.558Z,19.73
2023-05-05T07:48:24.562Z,19.56
2023-05-05T07:49:24.520Z,19.10
2023-05-05T07:50:24.525Z,19.66
2023-05-05T07:51:24.488Z,19.76
2023-05-05T07:52:36.999Z,18.88
2023-05-05T07:53:24.945Z,17.86
2023-05-05T07:54:24.469Z,17.54
2023-05-05T07:55:24.507Z,16.97
2023-05-05T07:56:24.427Z,16.24
2023-05-05T07:57:24.441Z,15.87
2023-05-05T07:58:24.411Z,15.75
2023-05-05T07:59:24.411Z,15.83
2023-05-05T08:00:24.389Z,15.68
2023-05-05T08:01:24.386Z,15.28
2023-05-05T08:02:24.786Z,15.02
2023-05-05T08:03:24.991Z,15.06
2023-05-05T08:04:24.385Z,15.20
2023-05-05T08:05:24.338Z,15.25
2023-05-05T08:06:24.313Z,15.49
2023-05-05T08:07:24.310Z,15.71
2023-05-05T08:08:24.322Z,16.33
2023-05-05T08:09:24.285Z,16.73
2023-05-05T08:10:24.328Z,16.82
2023-05-05T08:11:24.318Z,16.79
2023-05-05T08:12:24.244Z,16.20
2023-05-05T08:13:24.236Z,16.14
2023-05-05T08:14:24.261Z,16.15
2023-05-05T08:15:24.201Z,16.27
2023-05-05T08:16:24.411Z,16.43
2023-05-05T08:17:24.186Z,16.70
2023-05-05T08:18:24.166Z,16.81
2023-05-05T08:19:29.192Z,16.27
2023-05-05T08:20:24.156Z,16.17
2023-05-05T08:21:24.148Z,15.67
2023-05-05T08:22:24.125Z,15.56
2023-05-05T08:23:24.112Z,15.78
2023-05-05T08:24:24.108Z,16.00
2023-05-05T08:25:24.114Z,16.11
2023-05-05T08:26:24.073Z,15.74
2023-05-05T08:27:24.140Z,15.54
2023-05-05T08:28:24.063Z,15.84
2023-05-05T08:29:24.047Z,15.97
2023-05-05T08:30:24.109Z,16.23
2023-05-05T08:31:24.211Z,16.38
2023-05-05T08:32:27.858Z,16.61
2023-05-05T08:33:24.133Z,16.61
2023-05-05T08:34:24.503Z,16.78
2023-05-05T08:35:24.500Z,17.01
2023-05-05T08:36:23.977Z,17.04
2023-05-05T08:37:24.332Z,17.08
2023-05-05T08:38:23.944Z,16.93
2023-05-05T08:39:26.119Z,16.46
2023-05-05T08:40:23.965Z,16.43
2023-05-05T08:41:23.900Z,16.39
2023-05-05T08:42:36.265Z,16.31
2023-05-05T08:43:24.566Z,16.17
2023-05-05T08:44:23.874Z,16.04
2023-05-05T08:45:23.868Z,16.09
2023-05-05T08:46:25.386Z,16.17
2023-05-05T08:47:23.911Z,16.39
2023-05-05T08:48:24.606Z,16.70
2023-05-05T08:49:23.792Z,16.71
2023-05-05T08:50:23.919Z,16.73
2023-05-05T08:51:23.822Z,16.83
2023-05-05T08:52:23.810Z,16.76
2023-05-05T08:53:23.746Z,16.85
2023-05-05T08:54:24.569Z,16.91
2023-05-05T08:55:24.223Z,16.93
2023-05-05T08:56:24.184Z,17.03
2023-05-05T08:57:24.696Z,17.16
2023-05-05T08:58:23.861Z,17.25
2023-05-05T08:59:24.173Z,17.30
2023-05-05T09:00:24.195Z,17.38
2023-05-05T09:01:24.800Z,17.52
2023-05-05T09:02:27.313Z,17.55
2023-05-05T09:03:24.135Z,17.63
2023-05-05T09:04:23.778Z,17.36
2023-05-05T09:05:24.299Z,17.44
2023-05-05T09:06:23.769Z,17.43
2023-05-05T09:07:23.750Z,17.23
2023-05-05T09:08:23.718Z,17.33
2023-05-05T09:09:27.494Z,17.15
2023-05-05T09:10:23.569Z,16.85
2023-05-05T09:11:23.627Z,16.61
2023-05-05T09:12:23.555Z,16.45
2023-05-05T09:13:27.574Z,16.38
2023-05-05T09:14:24.535Z,16.45
2023-05-05T09:15:23.599Z,16.50
2023-05-05T09:16:23.526Z,16.81
2023-05-05T09:17:26.015Z,16.93
2023-05-05T09:18:27.039Z,17.06
2023-05-05T09:19:25.215Z,17.15
2023-05-05T09:20:26.432Z,17.54
2023-05-05T09:21:24.090Z,17.95
2023-05-05T09:22:25.377Z,18.03
2023-05-05T09:23:24.778Z,18.11
2023-05-05T09:24:24.285Z,18.35
2023-05-05T09:25:23.854Z,18.30
2023-05-05T09:26:24.317Z,18.35
2023-05-05T09:27:23.838Z,18.58
2023-05-05T09:28:23.397Z,18.90
2023-05-05T09:29:23.696Z,18.88
2023-05-05T09:30:24.132Z,18.54
2023-05-05T09:31:26.997Z,18.45
2023-05-05T09:32:23.474Z,18.41
2023-05-05T09:33:23.327Z,18.54
2023-05-05T09:34:23.283Z,18.92
2023-05-05T09:35:23.476Z,19.11
2023-05-05T09:36:23.231Z,18.76
2023-05-05T09:37:23.991Z,18.39
2023-05-05T09:38:23.229Z,18.44
2023-05-05T09:39:23.292Z,18.57
2023-05-05T09:40:24.179Z,18.69
2023-05-05T09:41:23.173Z,19.04
2023-05-05T09:42:23.357Z,18.88
2023-05-05T09:43:23.148Z,19.22
2023-05-05T09:44:23.165Z,19.54
2023-05-05T09:45:32.228Z,19.62
2023-05-05T09:46:28.180Z,19.73
2023-05-05T09:47:43.898Z,19.87
2023-05-05T09:48:32.397Z,19.61
2023-05-05T09:49:49.167Z,19.54
2023-05-05T09:50:25.178Z,19.47
2023-05-05T09:51:27.846Z,19.68
2023-05-05T09:52:24.139Z,20.20
2023-05-05T09:53:23.467Z,20.76
2023-05-05T09:54:23.106Z,21.29
2023-05-05T09:55:23.293Z,21.54
2023-05-05T09:56:23.131Z,21.68
2023-05-05T09:57:23.123Z,21.92
2023-05-05T09:58:23.245Z,21.65
2023-05-05T09:59:23.156Z,22.02
2023-05-05T10:00:23.188Z,21.92
2023-05-05T10:01:22.924Z,21.91
2023-05-05T10:02:22.902Z,21.77
2023-05-05T10:03:26.500Z,21.69
2023-05-05T10:04:23.123Z,21.40
2023-05-05T10:06:10.947Z,21.04
2023-05-05T10:06:28.240Z,21.21
2023-05-05T10:07:23.906Z,21.83
2023-05-05T10:08:22.973Z,21.83
2023-05-05T10:09:22.947Z,22.14
2023-05-05T10:13:25.397Z,23.43
2023-05-05T10:14:24.613Z,23.60
2023-05-05T10:15:24.563Z,24.02
2023-05-05T10:16:24.802Z,24.27
2023-05-05T10:17:24.600Z,24.02
2023-05-05T10:18:24.685Z,23.28
2023-05-05T10:19:24.573Z,22.70
2023-05-05T10:20:24.610Z,22.57
2023-05-05T10:21:25.719Z,22.54
2023-05-05T10:22:25.798Z,22.25
2023-05-05T10:23:25.552Z,22.03
2023-05-05T10:24:25.656Z,22.54
2023-05-05T10:25:25.559Z,22.52
2023-05-05T10:26:25.500Z,22.64
2023-05-05T10:27:25.571Z,22.73
2023-05-05T10:28:25.579Z,22.51
2023-05-05T10:29:25.651Z,21.98
2023-05-05T10:30:25.768Z,21.52
2023-05-05T10:31:26.721Z,21.34
2023-05-05T10:32:50.142Z,20.70
2023-05-05T10:33:31.045Z,20.59
2023-05-05T10:34:30.220Z,20.58
2023-05-05T10:35:37.267Z,20.42
2023-05-05T10:36:31.032Z,20.23
2023-05-05T10:37:27.770Z,19.84
2023-05-05T10:38:44.359Z,19.55
2023-05-05T10:39:25.368Z,19.47
2023-05-05T10:40:25.354Z,19.62
2023-05-05T10:41:32.541Z,19.74
2023-05-05T10:42:26.319Z,19.71
2023-05-05T12:04:58.314Z,18.50
2023-05-05T12:05:59.712Z,18.52
2023-05-05T12:06:59.458Z,18.58
2023-05-05T12:08:07.273Z,18.51
2023-05-05T12:08:59.761Z,18.47
2023-05-05T13:39:00.844Z,17.48
2023-05-05T13:40:00.929Z,17.58
2023-05-05T13:41:00.860Z,17.81
2023-05-05T13:55:04.315Z,19.48
2023-05-05T13:56:12.904Z,19.69
2023-05-05T14:01:43.408Z,20.14
2023-05-05T14:02:45.226Z,20.18
2023-05-05T14:03:43.295Z,19.92
2023-05-05T14:04:43.266Z,20.05
2023-05-05T14:05:43.212Z,20.21
2023-05-05T14:06:43.222Z,20.41
2023-05-05T14:07:43.177Z,20.42
2023-05-05T14:08:43.165Z,20.11
2023-05-05T14:09:43.208Z,20.02
2023-05-05T14:10:45.427Z,19.77
2023-05-05T14:11:43.132Z,19.36
2023-05-05T14:12:43.187Z,19.31
2023-05-05T14:13:44.262Z,19.61
2023-05-05T14:14:44.222Z,19.50
2023-05-05T14:15:44.236Z,19.58
2023-05-05T14:16:44.285Z,19.61
2023-05-05T14:17:44.275Z,19.14
2023-05-05T14:18:44.625Z,19.00
2023-05-05T14:19:44.213Z,19.04
2023-05-05T14:20:44.229Z,19.04
2023-05-05T14:21:44.288Z,19.07
2023-05-05T14:22:44.261Z,19.21
2023-05-05T14:23:44.147Z,18.98
2023-05-05T14:24:44.149Z,18.82
2023-05-05T14:25:44.135Z,18.62
2023-05-05T14:26:44.176Z,18.50
2023-05-05T14:27:45.070Z,18.47
2023-05-05T14:28:44.304Z,18.52
2023-05-05T14:29:44.076Z,18.60
2023-05-05T14:30:44.050Z,18.48
2023-05-05T14:31:44.111Z,18.39
2023-05-05T14:32:44.042Z,18.29
2023-05-05T14:33:44.014Z,18.21
2023-05-05T14:34:44.019Z,17.87
2023-05-05T14:35:44.058Z,17.54
2023-05-05T14:36:44.037Z,17.44
2023-05-05T14:37:44.160Z,17.51
2023-05-05T14:38:44.002Z,17.77
2023-05-05T14:39:44.004Z,17.74
2023-05-05T14:40:44.375Z,17.52
2023-05-05T14:41:43.951Z,17.75
2023-05-05T14:42:44.005Z,17.90
2023-05-05T14:43:43.936Z,17.79
2023-05-05T14:44:43.881Z,17.78
2023-05-05T14:45:43.942Z,17.74
2023-05-05T14:46:45.969Z,17.44
2023-05-05T14:47:44.878Z,17.21
2023-05-05T14:48:43.851Z,17.18
2023-05-05T14:49:43.921Z,17.15
2023-05-05T14:50:43.848Z,17.22
2023-05-05T14:51:43.838Z,17.33
2023-05-05T14:52:43.826Z,17.40
2023-05-05T14:53:43.855Z,17.46
2023-05-05T14:54:43.752Z,17.55
2023-05-05T14:55:43.786Z,17.62
2023-05-05T14:56:43.693Z,17.62
2023-05-05T14:57:43.785Z,17.56
2023-05-05T14:58:43.875Z,17.44
2023-05-05T14:59:43.782Z,17.44
2023-05-05T15:00:43.768Z,17.54
2023-05-05T15:01:43.710Z,17.58
2023-05-05T15:02:45.021Z,17.68
2023-05-05T15:03:43.948Z,17.72
2023-05-05T15:04:43.581Z,17.55
2023-05-05T15:05:43.685Z,17.55
2023-05-05T15:06:43.568Z,17.48
2023-05-05T15:07:43.567Z,17.37
2023-05-05T15:08:43.572Z,17.41
2023-05-05T15:09:43.888Z,17.33
2023-05-05T15:10:43.514Z,17.28
2023-05-05T15:11:43.533Z,17.23
2023-05-05T15:12:43.592Z,17.19
2023-05-05T15:13:43.511Z,17.12
2023-05-05T15:14:43.601Z,16.96
2023-05-05T15:15:43.487Z,16.85
2023-05-05T15:16:43.418Z,16.81
2023-05-05T15:17:43.462Z,16.56
2023-05-05T15:18:43.432Z,16.53
2023-05-05T15:19:43.392Z,16.43
2023-05-05T15:20:43.440Z,16.41
2023-05-05T15:21:43.381Z,16.30
2023-05-05T15:22:43.367Z,16.17
2023-05-05T15:23:43.342Z,16.17
2023-05-05T15:24:43.331Z,16.09
2023-05-05T15:26:18.734Z,15.97
2023-05-05T15:26:43.663Z,15.93
2023-05-05T15:27:46.806Z,15.53
2023-05-05T15:28:43.275Z,15.54
2023-05-05T15:29:43.288Z,15.49
2023-05-05T15:30:43.453Z,15.50
2023-05-05T15:31:43.244Z,15.51
2023-05-05T15:32:43.374Z,15.41
2023-05-05T15:33:43.219Z,15.34
2023-05-05T15:34:43.227Z,15.16
2023-05-05T15:35:43.242Z,15.20
2023-05-05T15:36:43.214Z,15.11
2023-05-05T15:37:43.195Z,15.16
2023-05-05T15:38:43.199Z,15.25
2023-05-05T15:39:43.155Z,15.10
2023-05-05T15:41:18.604Z,15.03
2023-05-05T15:41:43.340Z,14.83
2023-05-05T15:42:43.484Z,14.46
2023-05-05T15:43:43.137Z,14.18
2023-05-05T15:44:43.097Z,14.18
2023-05-05T15:45:43.084Z,14.32
2023-05-05T15:46:43.206Z,14.33
2023-05-05T15:47:43.138Z,14.29
2023-05-05T15:48:43.074Z,14.32
2023-05-05T15:49:43.082Z,14.28
2023-05-05T16:18:40.598Z,13.92
2023-05-05T16:19:41.791Z,13.97
2023-05-05T16:45:57.570Z,14.39
2023-05-05T16:46:58.218Z,14.40
2023-05-05T16:47:57.717Z,14.45
2023-05-05T16:48:57.356Z,14.47
2023-05-05T16:49:57.379Z,14.54
2023-05-05T16:50:57.334Z,14.42
2023-05-05T16:51:57.333Z,14.50
2023-05-05T16:52:57.355Z,14.51
2023-05-05T16:53:57.366Z,14.61
2023-05-05T16:54:57.284Z,14.51
2023-05-05T16:55:57.297Z,14.60
2023-05-05T16:56:57.340Z,14.51
2023-05-05T16:57:57.248Z,14.47
2023-05-05T16:58:57.238Z,14.40
2023-05-05T16:59:57.222Z,14.50
2023-05-05T17:00:57.219Z,14.62
2023-05-05T17:01:57.326Z,14.45
2023-05-05T17:02:57.282Z,14.57
2023-05-05T17:03:57.182Z,14.45
2023-05-05T17:04:57.255Z,14.36
2023-05-05T17:05:57.220Z,14.32
2023-05-05T17:06:57.151Z,14.33
2023-05-05T17:07:57.130Z,14.42
2023-05-05T17:08:57.148Z,14.46
2023-05-05T17:09:57.116Z,14.57
2023-05-05T17:10:57.104Z,14.55
2023-05-05T17:11:57.113Z,14.60
2023-05-05T17:12:57.170Z,14.64
2023-05-05T17:13:57.151Z,14.61
2023-05-05T17:14:57.068Z,14.65
2023-05-05T17:15:57.078Z,14.65
2023-05-05T17:16:57.223Z,14.70